sensor_id;sensor_type;location;lat;lon;timestamp;pressure;altitude;pressure_sealevel;temperature;humidity
39739;BME280;25422;48.286;8.484;2023-03-14T00:01:50;92561.19;;;6.39;100.00
39739;BME280;25422;48.286;8.484;2023-03-14T00:04:15;92564.97;;;6.36;100.00
39739;BME280;25422;48.286;8.484;2023-03-14T00:06:41;92580.28;;;6.31;100.00
39739;BME280;25422;48.286;8.484;2023-03-14T00:09:07;92579.66;;;6.29;100.00
39739;BME280;25422;48.286;8.484;2023-03-14T00:11:33;92577.41;;;6.26;100.00
39739;BME280;25422;48.286;8.484;2023-03-14T00:13:58;92585.03;;;6.28;100.00
39739;BME280;25422;48.286;8.484;2023-03-14T00:16:25;92581.00;;;6.25;100.00
39739;BME280;25422;48.286;8.484;2023-03-14T00:18:50;92582.69;;;6.33;100.00
39739;BME280;25422;48.286;8.484;2023-03-14T00:21:16;92587.44;;;6.29;100.00
39739;BME280;25422;48.286;8.484;2023-03-14T00:23:42;92593.88;;;6.33;100.00
39739;BME280;25422;48.286;8.484;2023-03-14T00:26:13;92602.69;;;6.32;100.00
39739;BME280;25422;48.286;8.484;2023-03-14T00:28:40;92604.63;;;6.30;100.00
39739;BME280;25422;48.286;8.484;2023-03-14T00:31:10;92606.63;;;6.28;100.00
39739;BME280;25422;48.286;8.484;2023-03-14T00:33:36;92609.56;;;6.25;100.00
39739;BME280;25422;48.286;8.484;2023-03-14T00:36:11;92622.56;;;6.25;100.00
39739;BME280;25422;48.286;8.484;2023-03-14T00:38:38;92629.56;;;6.24;100.00
39739;BME280;25422;48.286;8.484;2023-03-14T00:41:06;92632.94;;;6.25;100.00
39739;BME280;25422;48.286;8.484;2023-03-14T00:43:31;92633.94;;;6.24;100.00
39739;BME280;25422;48.286;8.484;2023-03-14T00:45:57;92640.13;;;6.23;100.00
39739;BME280;25422;48.286;8.484;2023-03-14T00:48:26;92638.31;;;6.23;100.00
39739;BME280;25422;48.286;8.484;2023-03-14T00:50:51;92632.75;;;6.27;100.00
39739;BME280;25422;48.286;8.484;2023-03-14T00:53:17;92628.38;;;6.27;100.00
39739;BME280;25422;48.286;8.484;2023-03-14T00:55:44;92615.78;;;6.24;100.00
39739;BME280;25422;48.286;8.484;2023-03-14T00:58:12;92613.97;;;6.24;100.00
39739;BME280;25422;48.286;8.484;2023-03-14T01:00:38;92599.38;;;6.23;100.00
39739;BME280;25422;48.286;8.484;2023-03-14T01:03:04;92591.75;;;6.22;100.00
39739;BME280;25422;48.286;8.484;2023-03-14T01:05:30;92587.91;;;6.18;100.00
39739;BME280;25422;48.286;8.484;2023-03-14T01:07:56;92579.34;;;6.17;100.00
39739;BME280;25422;48.286;8.484;2023-03-14T01:10:22;92578.50;;;6.17;100.00
39739;BME280;25422;48.286;8.484;2023-03-14T01:12:48;92582.28;;;6.14;100.00
39739;BME280;25422;48.286;8.484;2023-03-14T01:15:13;92583.69;;;6.17;100.00
39739;BME280;25422;48.286;8.484;2023-03-14T01:17:39;92574.28;;;6.16;100.00
39739;BME280;25422;48.286;8.484;2023-03-14T01:20:05;92568.94;;;6.17;100.00
39739;BME280;25422;48.286;8.484;2023-03-14T01:22:31;92555.69;;;6.12;100.00
39739;BME280;25422;48.286;8.484;2023-03-14T01:24:57;92554.63;;;6.06;100.00
39739;BME280;25422;48.286;8.484;2023-03-14T01:27:22;92550.81;;;6.02;100.00
39739;BME280;25422;48.286;8.484;2023-03-14T01:29:47;92549.59;;;6.05;100.00
39739;BME280;25422;48.286;8.484;2023-03-14T01:32:13;92542.19;;;6.02;100.00
39739;BME280;25422;48.286;8.484;2023-03-14T01:34:39;92529.22;;;6.02;100.00
39739;BME280;25422;48.286;8.484;2023-03-14T01:37:04;92544.69;;;5.95;100.00
39739;BME280;25422;48.286;8.484;2023-03-14T01:39:30;92540.50;;;5.94;100.00
39739;BME280;25422;48.286;8.484;2023-03-14T01:41:56;92548.63;;;5.91;100.00
39739;BME280;25422;48.286;8.484;2023-03-14T01:44:21;92553.63;;;5.93;100.00
39739;BME280;25422;48.286;8.484;2023-03-14T01:46:46;92560.63;;;5.92;100.00
39739;BME280;25422;48.286;8.484;2023-03-14T01:52:07;92546.28;;;5.96;100.00
39739;BME280;25422;48.286;8.484;2023-03-14T01:54:44;92541.47;;;5.93;100.00
39739;BME280;25422;48.286;8.484;2023-03-14T01:57:24;92541.81;;;5.90;100.00
39739;BME280;25422;48.286;8.484;2023-03-14T01:59:57;92534.22;;;5.88;100.00
39739;BME280;25422;48.286;8.484;2023-03-14T02:02:24;92528.22;;;5.88;100.00
39739;BME280;25422;48.286;8.484;2023-03-14T02:04:51;92523.41;;;5.85;100.00
39739;BME280;25422;48.286;8.484;2023-03-14T02:07:35;92519.56;;;5.81;100.00
39739;BME280;25422;48.286;8.484;2023-03-14T02:10:10;92515.34;;;5.80;100.00
39739;BME280;25422;48.286;8.484;2023-03-14T02:12:36;92516.97;;;5.81;100.00
39739;BME280;25422;48.286;8.484;2023-03-14T02:15:24;92512.94;;;5.78;100.00
39739;BME280;25422;48.286;8.484;2023-03-14T02:17:56;92516.69;;;5.76;100.00
39739;BME280;25422;48.286;8.484;2023-03-14T02:23:47;92526.81;;;5.70;100.00
39739;BME280;25422;48.286;8.484;2023-03-14T02:26:22;92511.63;;;5.67;100.00
39739;BME280;25422;48.286;8.484;2023-03-14T02:28:51;92516.34;;;5.64;100.00
39739;BME280;25422;48.286;8.484;2023-03-14T02:31:18;92508.75;;;5.62;100.00
39739;BME280;25422;48.286;8.484;2023-03-14T02:33:48;92510.88;;;5.58;100.00
39739;BME280;25422;48.286;8.484;2023-03-14T02:36:14;92505.44;;;5.53;100.00
39739;BME280;25422;48.286;8.484;2023-03-14T02:38:51;92494.00;;;5.48;100.00
39739;BME280;25422;48.286;8.484;2023-03-14T02:41:18;92495.78;;;5.47;100.00
39739;BME280;25422;48.286;8.484;2023-03-14T02:43:51;92508.13;;;5.45;100.00
39739;BME280;25422;48.286;8.484;2023-03-14T02:46:18;92497.75;;;5.45;100.00
39739;BME280;25422;48.286;8.484;2023-03-14T02:48:51;92492.31;;;5.40;100.00
39739;BME280;25422;48.286;8.484;2023-03-14T02:51:17;92492.94;;;5.42;100.00
39739;BME280;25422;48.286;8.484;2023-03-14T02:53:46;92475.50;;;5.36;100.00
39739;BME280;25422;48.286;8.484;2023-03-14T02:56:12;92460.09;;;5.34;100.00
39739;BME280;25422;48.286;8.484;2023-03-14T02:58:38;92465.22;;;5.28;100.00
39739;BME280;25422;48.286;8.484;2023-03-14T03:01:13;92464.88;;;5.31;100.00
39739;BME280;25422;48.286;8.484;2023-03-14T03:03:38;92458.25;;;5.28;100.00
39739;BME280;25422;48.286;8.484;2023-03-14T03:06:04;92453.25;;;5.27;100.00
39739;BME280;25422;48.286;8.484;2023-03-14T03:08:31;92435.97;;;5.19;100.00
39739;BME280;25422;48.286;8.484;2023-03-14T03:10:58;92432.03;;;5.23;100.00
39739;BME280;25422;48.286;8.484;2023-03-14T03:13:25;92439.28;;;5.13;100.00
39739;BME280;25422;48.286;8.484;2023-03-14T03:15:53;92445.75;;;5.17;100.00
39739;BME280;25422;48.286;8.484;2023-03-14T03:18:19;92426.84;;;5.23;100.00
39739;BME280;25422;48.286;8.484;2023-03-14T03:20:45;92429.81;;;5.20;100.00
39739;BME280;25422;48.286;8.484;2023-03-14T03:23:11;92415.94;;;5.13;100.00
39739;BME280;25422;48.286;8.484;2023-03-14T03:25:37;92412.09;;;5.09;100.00
39739;BME280;25422;48.286;8.484;2023-03-14T03:28:03;92402.75;;;5.07;100.00
39739;BME280;25422;48.286;8.484;2023-03-14T03:30:40;92401.50;;;5.03;100.00
39739;BME280;25422;48.286;8.484;2023-03-14T03:33:06;92394.06;;;5.00;100.00
39739;BME280;25422;48.286;8.484;2023-03-14T03:35:33;92397.47;;;5.01;100.00
39739;BME280;25422;48.286;8.484;2023-03-14T03:37:59;92393.44;;;4.98;100.00
39739;BME280;25422;48.286;8.484;2023-03-14T03:40:25;92389.88;;;4.99;100.00
39739;BME280;25422;48.286;8.484;2023-03-14T03:42:51;92387.28;;;4.99;100.00
39739;BME280;25422;48.286;8.484;2023-03-14T03:45:16;92387.09;;;5.01;100.00
39739;BME280;25422;48.286;8.484;2023-03-14T03:47:49;92393.72;;;5.03;100.00
39739;BME280;25422;48.286;8.484;2023-03-14T03:50:15;92389.22;;;5.12;100.00
39739;BME280;25422;48.286;8.484;2023-03-14T03:52:41;92387.19;;;5.07;100.00
39739;BME280;25422;48.286;8.484;2023-03-14T03:55:07;92382.19;;;5.21;100.00
39739;BME280;25422;48.286;8.484;2023-03-14T03:57:32;92379.50;;;5.14;100.00
39739;BME280;25422;48.286;8.484;2023-03-14T03:59:58;92379.09;;;5.32;100.00
39739;BME280;25422;48.286;8.484;2023-03-14T04:02:23;92379.81;;;5.26;100.00
39739;BME280;25422;48.286;8.484;2023-03-14T04:04:50;92363.28;;;5.27;100.00
39739;BME280;25422;48.286;8.484;2023-03-14T04:07:16;92369.41;;;5.41;100.00
39739;BME280;25422;48.286;8.484;2023-03-14T04:09:43;92359.22;;;5.39;100.00
39739;BME280;25422;48.286;8.484;2023-03-14T04:12:19;92349.31;;;5.43;100.00
39739;BME280;25422;48.286;8.484;2023-03-14T04:14:55;92354.88;;;5.40;100.00
39739;BME280;25422;48.286;8.484;2023-03-14T04:17:21;92353.84;;;5.41;100.00
39739;BME280;25422;48.286;8.484;2023-03-14T04:19:46;92349.69;;;5.40;100.00
39739;BME280;25422;48.286;8.484;2023-03-14T04:22:14;92360.47;;;5.44;100.00
39739;BME280;25422;48.286;8.484;2023-03-14T04:24:47;92358.31;;;5.47;100.00
39739;BME280;25422;48.286;8.484;2023-03-14T04:27:12;92350.81;;;5.52;100.00
39739;BME280;25422;48.286;8.484;2023-03-14T04:29:42;92351.34;;;5.48;100.00
39739;BME280;25422;48.286;8.484;2023-03-14T04:32:07;92356.91;;;5.45;100.00
39739;BME280;25422;48.286;8.484;2023-03-14T04:34:35;92355.34;;;5.50;100.00
39739;BME280;25422;48.286;8.484;2023-03-14T04:37:00;92353.03;;;5.55;100.00
39739;BME280;25422;48.286;8.484;2023-03-14T04:39:33;92349.72;;;5.62;100.00
39739;BME280;25422;48.286;8.484;2023-03-14T04:42:07;92344.75;;;5.67;100.00
39739;BME280;25422;48.286;8.484;2023-03-14T04:44:35;92340.66;;;5.79;100.00
39739;BME280;25422;48.286;8.484;2023-03-14T04:47:01;92332.09;;;5.79;100.00
39739;BME280;25422;48.286;8.484;2023-03-14T04:49:26;92325.28;;;5.78;100.00
39739;BME280;25422;48.286;8.484;2023-03-14T04:51:51;92318.56;;;5.83;100.00
39739;BME280;25422;48.286;8.484;2023-03-14T04:54:18;92331.41;;;5.91;100.00
39739;BME280;25422;48.286;8.484;2023-03-14T04:56:45;92318.78;;;5.88;100.00
39739;BME280;25422;48.286;8.484;2023-03-14T04:59:11;92305.47;;;5.91;100.00
39739;BME280;25422;48.286;8.484;2023-03-14T05:01:40;92313.19;;;5.85;100.00
39739;BME280;25422;48.286;8.484;2023-03-14T05:04:21;92312.38;;;5.84;100.00
39739;BME280;25422;48.286;8.484;2023-03-14T05:07:11;92314.19;;;5.84;100.00
39739;BME280;25422;48.286;8.484;2023-03-14T05:09:59;92291.81;;;5.83;100.00
39739;BME280;25422;48.286;8.484;2023-03-14T05:12:39;92309.63;;;5.93;100.00
39739;BME280;25422;48.286;8.484;2023-03-14T05:15:25;92296.75;;;5.99;100.00
39739;BME280;25422;48.286;8.484;2023-03-14T05:18:05;92299.53;;;5.98;100.00
39739;BME280;25422;48.286;8.484;2023-03-14T05:20:42;92292.38;;;6.00;100.00
39739;BME280;25422;48.286;8.484;2023-03-14T05:23:19;92288.53;;;5.96;100.00
39739;BME280;25422;48.286;8.484;2023-03-14T05:26:11;92277.06;;;5.83;100.00
39739;BME280;25422;48.286;8.484;2023-03-14T05:28:51;92277.72;;;5.92;100.00
39739;BME280;25422;48.286;8.484;2023-03-14T05:31:24;92246.63;;;5.99;100.00
39739;BME280;25422;48.286;8.484;2023-03-14T05:34:08;92262.03;;;6.00;100.00
39739;BME280;25422;48.286;8.484;2023-03-14T05:36:44;92269.22;;;5.98;100.00
39739;BME280;25422;48.286;8.484;2023-03-14T05:39:34;92271.53;;;5.93;100.00
39739;BME280;25422;48.286;8.484;2023-03-14T05:42:20;92265.53;;;5.93;100.00
39739;BME280;25422;48.286;8.484;2023-03-14T05:45:15;92254.72;;;5.89;100.00
39739;BME280;25422;48.286;8.484;2023-03-14T05:48:09;92254.03;;;5.80;100.00
39739;BME280;25422;48.286;8.484;2023-03-14T05:50:55;92255.31;;;5.91;100.00
39739;BME280;25422;48.286;8.484;2023-03-14T05:53:34;92250.56;;;5.95;100.00
39739;BME280;25422;48.286;8.484;2023-03-14T05:56:19;92253.16;;;5.95;100.00
39739;BME280;25422;48.286;8.484;2023-03-14T05:59:13;92261.56;;;5.97;100.00
39739;BME280;25422;48.286;8.484;2023-03-14T06:01:53;92257.88;;;6.06;100.00
39739;BME280;25422;48.286;8.484;2023-03-14T06:04:24;92254.97;;;6.22;100.00
39739;BME280;25422;48.286;8.484;2023-03-14T06:06:54;92246.22;;;6.30;100.00
39739;BME280;25422;48.286;8.484;2023-03-14T06:09:20;92246.03;;;6.32;100.00
39739;BME280;25422;48.286;8.484;2023-03-14T06:11:49;92233.88;;;6.32;100.00
39739;BME280;25422;48.286;8.484;2023-03-14T06:14:16;92228.69;;;6.32;100.00
39739;BME280;25422;48.286;8.484;2023-03-14T06:16:45;92217.50;;;6.38;100.00
39739;BME280;25422;48.286;8.484;2023-03-14T06:19:13;92229.91;;;6.36;100.00
39739;BME280;25422;48.286;8.484;2023-03-14T06:21:39;92226.28;;;6.37;100.00
39739;BME280;25422;48.286;8.484;2023-03-14T06:24:05;92227.69;;;6.40;100.00
39739;BME280;25422;48.286;8.484;2023-03-14T06:26:36;92221.31;;;6.43;100.00
39739;BME280;25422;48.286;8.484;2023-03-14T06:29:02;92221.78;;;6.53;100.00
39739;BME280;25422;48.286;8.484;2023-03-14T06:31:30;92219.63;;;6.63;100.00
39739;BME280;25422;48.286;8.484;2023-03-14T06:33:59;92216.69;;;6.80;100.00
39739;BME280;25422;48.286;8.484;2023-03-14T06:36:28;92221.13;;;6.92;100.00
39739;BME280;25422;48.286;8.484;2023-03-14T06:38:55;92215.56;;;7.09;100.00
39739;BME280;25422;48.286;8.484;2023-03-14T06:41:22;92199.81;;;7.37;100.00
39739;BME280;25422;48.286;8.484;2023-03-14T06:43:51;92213.84;;;7.56;100.00
39739;BME280;25422;48.286;8.484;2023-03-14T06:46:16;92197.81;;;8.00;100.00
39739;BME280;25422;48.286;8.484;2023-03-14T06:48:42;92200.19;;;8.15;100.00
39739;BME280;25422;48.286;8.484;2023-03-14T06:51:08;92199.34;;;8.48;100.00
39739;BME280;25422;48.286;8.484;2023-03-14T06:53:34;92198.81;;;8.77;100.00
39739;BME280;25422;48.286;8.484;2023-03-14T06:56:01;92173.72;;;9.22;100.00
39739;BME280;25422;48.286;8.484;2023-03-14T06:58:28;92175.56;;;9.47;100.00
39739;BME280;25422;48.286;8.484;2023-03-14T07:00:54;92178.38;;;9.77;100.00
39739;BME280;25422;48.286;8.484;2023-03-14T07:03:23;92181.34;;;9.81;100.00
39739;BME280;25422;48.286;8.484;2023-03-14T07:05:52;92189.09;;;9.69;100.00
39739;BME280;25422;48.286;8.484;2023-03-14T07:08:17;92182.00;;;10.01;100.00
39739;BME280;25422;48.286;8.484;2023-03-14T07:10:44;92188.88;;;10.39;100.00
39739;BME280;25422;48.286;8.484;2023-03-14T07:13:10;92178.41;;;11.07;95.19
39739;BME280;25422;48.286;8.484;2023-03-14T07:15:46;92174.25;;;10.69;90.86
39739;BME280;25422;48.286;8.484;2023-03-14T07:18:12;92174.69;;;10.84;94.39
39739;BME280;25422;48.286;8.484;2023-03-14T07:20:38;92179.59;;;10.43;94.14
39739;BME280;25422;48.286;8.484;2023-03-14T07:23:04;92172.75;;;10.42;94.31
39739;BME280;25422;48.286;8.484;2023-03-14T07:25:36;92181.47;;;10.55;90.79
39739;BME280;25422;48.286;8.484;2023-03-14T07:28:02;92189.09;;;10.75;95.01
39739;BME280;25422;48.286;8.484;2023-03-14T07:30:28;92197.78;;;11.36;87.45
39739;BME280;25422;48.286;8.484;2023-03-14T07:32:56;92176.28;;;12.00;80.05
39739;BME280;25422;48.286;8.484;2023-03-14T07:35:23;92192.25;;;12.10;77.94
39739;BME280;25422;48.286;8.484;2023-03-14T07:37:48;92186.69;;;12.30;76.95
39739;BME280;25422;48.286;8.484;2023-03-14T07:40:17;92187.25;;;13.26;63.57
39739;BME280;25422;48.286;8.484;2023-03-14T07:42:43;92182.25;;;13.53;61.64
39739;BME280;25422;48.286;8.484;2023-03-14T07:45:24;92176.78;;;12.85;67.52
39739;BME280;25422;48.286;8.484;2023-03-14T07:47:49;92192.63;;;11.72;72.39
39739;BME280;25422;48.286;8.484;2023-03-14T07:50:15;92214.84;;;10.34;86.87
39739;BME280;25422;48.286;8.484;2023-03-14T07:52:41;92203.50;;;9.96;94.91
39739;BME280;25422;48.286;8.484;2023-03-14T07:55:07;92197.22;;;9.54;97.06
39739;BME280;25422;48.286;8.484;2023-03-14T07:57:32;92213.59;;;8.97;100.00
39739;BME280;25422;48.286;8.484;2023-03-14T07:59:58;92207.66;;;8.83;100.00
39739;BME280;25422;48.286;8.484;2023-03-14T08:02:23;92202.06;;;8.73;100.00
39739;BME280;25422;48.286;8.484;2023-03-14T08:04:49;92210.94;;;8.58;100.00
39739;BME280;25422;48.286;8.484;2023-03-14T08:07:15;92209.75;;;8.48;100.00
39739;BME280;25422;48.286;8.484;2023-03-14T08:09:40;92205.78;;;8.38;100.00
39739;BME280;25422;48.286;8.484;2023-03-14T08:12:06;92213.00;;;8.30;100.00
39739;BME280;25422;48.286;8.484;2023-03-14T08:14:31;92214.59;;;8.31;100.00
39739;BME280;25422;48.286;8.484;2023-03-14T08:16:57;92216.22;;;8.32;100.00
39739;BME280;25422;48.286;8.484;2023-03-14T08:19:22;92214.16;;;8.40;100.00
39739;BME280;25422;48.286;8.484;2023-03-14T08:21:48;92216.38;;;8.30;100.00
39739;BME280;25422;48.286;8.484;2023-03-14T08:24:13;92229.41;;;8.30;100.00
39739;BME280;25422;48.286;8.484;2023-03-14T08:26:38;92228.22;;;8.33;100.00
39739;BME280;25422;48.286;8.484;2023-03-14T08:29:04;92235.66;;;8.16;100.00
39739;BME280;25422;48.286;8.484;2023-03-14T08:31:30;92238.06;;;8.24;100.00
39739;BME280;25422;48.286;8.484;2023-03-14T08:33:58;92244.03;;;8.31;100.00
39739;BME280;25422;48.286;8.484;2023-03-14T08:36:24;92259.47;;;8.26;100.00
39739;BME280;25422;48.286;8.484;2023-03-14T08:38:49;92242.25;;;8.32;100.00
39739;BME280;25422;48.286;8.484;2023-03-14T08:41:15;92255.88;;;8.27;100.00
39739;BME280;25422;48.286;8.484;2023-03-14T08:43:40;92248.25;;;8.52;100.00
39739;BME280;25422;48.286;8.484;2023-03-14T08:46:05;92249.66;;;8.35;100.00
39739;BME280;25422;48.286;8.484;2023-03-14T08:48:31;92244.78;;;8.65;100.00
39739;BME280;25422;48.286;8.484;2023-03-14T08:51:03;92257.03;;;8.65;100.00
39739;BME280;25422;48.286;8.484;2023-03-14T08:53:29;92240.69;;;8.96;100.00
39739;BME280;25422;48.286;8.484;2023-03-14T08:55:54;92264.19;;;8.83;100.00
39739;BME280;25422;48.286;8.484;2023-03-14T08:58:20;92266.78;;;8.89;100.00
39739;BME280;25422;48.286;8.484;2023-03-14T09:00:45;92274.59;;;8.96;100.00
39739;BME280;25422;48.286;8.484;2023-03-14T09:03:10;92279.84;;;8.83;100.00
39739;BME280;25422;48.286;8.484;2023-03-14T09:05:36;92293.88;;;8.88;100.00
39739;BME280;25422;48.286;8.484;2023-03-14T09:08:01;92295.69;;;8.88;100.00
39739;BME280;25422;48.286;8.484;2023-03-14T09:10:26;92291.00;;;9.03;100.00
39739;BME280;25422;48.286;8.484;2023-03-14T09:12:52;92301.25;;;9.50;100.00
39739;BME280;25422;48.286;8.484;2023-03-14T09:15:17;92298.09;;;9.73;100.00
39739;BME280;25422;48.286;8.484;2023-03-14T09:17:43;92298.34;;;9.65;100.00
39739;BME280;25422;48.286;8.484;2023-03-14T09:20:10;92314.91;;;9.52;100.00
39739;BME280;25422;48.286;8.484;2023-03-14T09:22:36;92307.34;;;9.37;100.00
39739;BME280;25422;48.286;8.484;2023-03-14T09:25:03;92300.63;;;9.09;100.00
39739;BME280;25422;48.286;8.484;2023-03-14T09:27:29;92309.28;;;8.97;100.00
39739;BME280;25422;48.286;8.484;2023-03-14T09:29:54;92296.88;;;8.85;100.00
39739;BME280;25422;48.286;8.484;2023-03-14T09:32:19;92308.44;;;9.16;100.00
39739;BME280;25422;48.286;8.484;2023-03-14T09:34:45;92308.84;;;9.20;100.00
39739;BME280;25422;48.286;8.484;2023-03-14T09:37:11;92298.84;;;9.03;100.00
39739;BME280;25422;48.286;8.484;2023-03-14T09:39:36;92305.44;;;9.13;100.00
39739;BME280;25422;48.286;8.484;2023-03-14T09:42:04;92286.91;;;9.27;100.00
39739;BME280;25422;48.286;8.484;2023-03-14T09:44:37;92287.66;;;10.05;100.00
39739;BME280;25422;48.286;8.484;2023-03-14T09:47:12;92294.91;;;10.54;100.00
39739;BME280;25422;48.286;8.484;2023-03-14T09:49:42;92310.13;;;10.38;100.00
39739;BME280;25422;48.286;8.484;2023-03-14T09:52:32;92301.22;;;9.57;100.00
39739;BME280;25422;48.286;8.484;2023-03-14T09:54:59;92305.78;;;9.30;100.00
39739;BME280;25422;48.286;8.484;2023-03-14T09:57:27;92306.97;;;9.34;100.00
39739;BME280;25422;48.286;8.484;2023-03-14T09:59:57;92313.75;;;9.41;100.00
39739;BME280;25422;48.286;8.484;2023-03-14T10:02:28;92296.66;;;9.45;100.00
39739;BME280;25422;48.286;8.484;2023-03-14T10:04:58;92302.81;;;9.58;100.00
39739;BME280;25422;48.286;8.484;2023-03-14T10:07:31;92300.16;;;9.71;100.00
39739;BME280;25422;48.286;8.484;2023-03-14T10:09:57;92291.00;;;9.55;100.00
39739;BME280;25422;48.286;8.484;2023-03-14T10:12:34;92304.44;;;9.14;100.00
39739;BME280;25422;48.286;8.484;2023-03-14T10:15:08;92303.50;;;8.94;100.00
39739;BME280;25422;48.286;8.484;2023-03-14T10:17:43;92303.31;;;8.76;100.00
39739;BME280;25422;48.286;8.484;2023-03-14T10:20:38;92307.75;;;8.75;100.00
39739;BME280;25422;48.286;8.484;2023-03-14T10:23:16;92305.59;;;8.59;100.00
39739;BME280;25422;48.286;8.484;2023-03-14T10:26:00;92318.81;;;8.10;100.00
39739;BME280;25422;48.286;8.484;2023-03-14T10:28:31;92332.22;;;7.94;100.00
39739;BME280;25422;48.286;8.484;2023-03-14T10:30:57;92331.97;;;7.69;100.00
39739;BME280;25422;48.286;8.484;2023-03-14T10:35:59;92355.69;;;7.32;100.00
39739;BME280;25422;48.286;8.484;2023-03-14T10:38:31;92340.03;;;7.25;100.00
39739;BME280;25422;48.286;8.484;2023-03-14T10:40:57;92362.22;;;7.15;100.00
39739;BME280;25422;48.286;8.484;2023-03-14T10:43:42;92369.19;;;7.07;100.00
39739;BME280;25422;48.286;8.484;2023-03-14T10:46:12;92365.38;;;7.03;100.00
39739;BME280;25422;48.286;8.484;2023-03-14T10:49:04;92370.13;;;7.00;100.00
39739;BME280;25422;48.286;8.484;2023-03-14T10:51:31;92373.13;;;6.97;100.00
39739;BME280;25422;48.286;8.484;2023-03-14T10:53:57;92364.91;;;6.86;100.00
39739;BME280;25422;48.286;8.484;2023-03-14T10:56:24;92371.75;;;7.01;100.00
39739;BME280;25422;48.286;8.484;2023-03-14T10:58:52;92374.16;;;7.02;100.00
39739;BME280;25422;48.286;8.484;2023-03-14T11:04:21;92388.75;;;7.03;100.00
39739;BME280;25422;48.286;8.484;2023-03-14T11:09:32;92396.72;;;6.95;100.00
39739;BME280;25422;48.286;8.484;2023-03-14T11:15:32;92399.28;;;6.88;100.00
39739;BME280;25422;48.286;8.484;2023-03-14T11:21:14;92394.03;;;6.82;100.00
39739;BME280;25422;48.286;8.484;2023-03-14T11:28:58;92407.66;;;6.84;100.00
39739;BME280;25422;48.286;8.484;2023-03-14T11:31:33;92422.03;;;6.80;100.00
39739;BME280;25422;48.286;8.484;2023-03-14T11:34:22;92426.69;;;6.63;100.00
39739;BME280;25422;48.286;8.484;2023-03-14T11:39:19;92430.75;;;6.44;100.00
39739;BME280;25422;48.286;8.484;2023-03-14T11:41:47;92432.59;;;6.50;100.00
39739;BME280;25422;48.286;8.484;2023-03-14T11:51:52;92456.84;;;6.35;100.00
39739;BME280;25422;48.286;8.484;2023-03-14T11:54:43;92465.16;;;6.24;100.00
39739;BME280;25422;48.286;8.484;2023-03-14T11:57:17;92474.28;;;5.98;100.00
39739;BME280;25422;48.286;8.484;2023-03-14T12:03:04;92506.84;;;5.71;100.00
39739;BME280;25422;48.286;8.484;2023-03-14T12:05:48;92515.81;;;5.53;100.00
39739;BME280;25422;48.286;8.484;2023-03-14T12:10:55;92540.69;;;4.33;100.00
39739;BME280;25422;48.286;8.484;2023-03-14T12:13:28;92533.41;;;4.05;100.00
39739;BME280;25422;48.286;8.484;2023-03-14T12:15:56;92548.69;;;3.92;100.00
39739;BME280;25422;48.286;8.484;2023-03-14T12:18:32;92554.38;;;3.87;100.00
39739;BME280;25422;48.286;8.484;2023-03-14T12:21:01;92562.75;;;3.98;100.00
39739;BME280;25422;48.286;8.484;2023-03-14T12:23:35;92574.16;;;4.12;100.00
39739;BME280;25422;48.286;8.484;2023-03-14T12:28:36;92572.88;;;4.08;100.00
39739;BME280;25422;48.286;8.484;2023-03-14T12:39:40;92593.63;;;3.99;100.00
39739;BME280;25422;48.286;8.484;2023-03-14T12:42:17;92601.56;;;3.98;100.00
39739;BME280;25422;48.286;8.484;2023-03-14T12:44:47;92625.16;;;3.95;100.00
39739;BME280;25422;48.286;8.484;2023-03-14T12:49:49;92639.00;;;5.19;100.00
39739;BME280;25422;48.286;8.484;2023-03-14T12:52:31;92630.63;;;6.00;100.00
39739;BME280;25422;48.286;8.484;2023-03-14T12:57:36;92648.09;;;6.21;100.00
39739;BME280;25422;48.286;8.484;2023-03-14T13:00:18;92668.91;;;5.68;100.00
39739;BME280;25422;48.286;8.484;2023-03-14T13:02:46;92689.03;;;5.66;100.00
39739;BME280;25422;48.286;8.484;2023-03-14T13:05:19;92703.53;;;5.76;100.00
39739;BME280;25422;48.286;8.484;2023-03-14T13:15:40;92748.25;;;5.39;100.00
39739;BME280;25422;48.286;8.484;2023-03-14T13:18:19;92737.59;;;5.34;100.00
39739;BME280;25422;48.286;8.484;2023-03-14T13:20:59;92732.22;;;5.13;100.00
39739;BME280;25422;48.286;8.484;2023-03-14T13:23:29;92759.25;;;4.87;100.00
39739;BME280;25422;48.286;8.484;2023-03-14T13:25:56;92780.81;;;4.48;100.00
39739;BME280;25422;48.286;8.484;2023-03-14T13:28:22;92784.38;;;4.38;100.00
39739;BME280;25422;48.286;8.484;2023-03-14T13:30:49;92789.44;;;4.24;100.00
39739;BME280;25422;48.286;8.484;2023-03-14T13:33:18;92808.16;;;4.34;100.00
39739;BME280;25422;48.286;8.484;2023-03-14T13:35:56;92811.69;;;4.58;100.00
39739;BME280;25422;48.286;8.484;2023-03-14T13:38:29;92817.31;;;4.61;100.00
39739;BME280;25422;48.286;8.484;2023-03-14T13:40:58;92832.34;;;4.74;100.00
39739;BME280;25422;48.286;8.484;2023-03-14T13:43:34;92842.19;;;4.87;100.00
39739;BME280;25422;48.286;8.484;2023-03-14T13:46:05;92830.69;;;4.81;100.00
39739;BME280;25422;48.286;8.484;2023-03-14T13:48:35;92843.22;;;4.78;100.00
39739;BME280;25422;48.286;8.484;2023-03-14T13:51:05;92843.50;;;4.91;100.00
39739;BME280;25422;48.286;8.484;2023-03-14T13:53:33;92856.28;;;4.93;100.00
39739;BME280;25422;48.286;8.484;2023-03-14T13:56:09;92871.78;;;5.01;100.00
39739;BME280;25422;48.286;8.484;2023-03-14T13:58:38;92850.50;;;4.74;100.00
39739;BME280;25422;48.286;8.484;2023-03-14T14:01:10;92862.66;;;4.57;100.00
39739;BME280;25422;48.286;8.484;2023-03-14T14:03:39;92875.00;;;4.47;100.00
39739;BME280;25422;48.286;8.484;2023-03-14T14:06:10;92871.16;;;4.34;100.00
39739;BME280;25422;48.286;8.484;2023-03-14T14:08:40;92868.22;;;4.37;100.00
39739;BME280;25422;48.286;8.484;2023-03-14T14:11:05;92891.38;;;4.22;100.00
39739;BME280;25422;48.286;8.484;2023-03-14T14:13:33;92901.38;;;4.34;100.00
39739;BME280;25422;48.286;8.484;2023-03-14T14:16:01;92900.59;;;4.42;100.00
39739;BME280;25422;48.286;8.484;2023-03-14T14:18:30;92911.25;;;4.55;100.00
39739;BME280;25422;48.286;8.484;2023-03-14T14:20:56;92897.16;;;4.66;100.00